createdAt,value
2019-05-01T00:01:15.133Z,44.23
2019-05-01T00:04:03.373Z,47.77
2019-05-01T00:06:39.276Z,40.90
2019-05-01T00:09:10.195Z,42.97
2019-05-01T00:11:39.555Z,43.87
2019-05-01T00:14:09.553Z,44.17
2019-05-01T00:16:39.191Z,41.07
2019-05-01T00:19:08.601Z,43.13
2019-05-01T00:21:37.989Z,50.57
2019-05-01T00:24:07.371Z,39.10
2019-05-01T00:26:36.639Z,47.37
2019-05-01T00:29:06.416Z,43.07
2019-05-01T00:31:35.814Z,44.90
2019-05-01T00:34:05.083Z,56.53
2019-05-01T00:36:34.445Z,49.43
2019-05-01T00:39:04.302Z,50.10
2019-05-01T00:41:33.721Z,49.73
2019-05-01T00:44:03.018Z,55.47
2019-05-01T00:46:32.582Z,45.53
2019-05-01T00:49:02.126Z,48.00
2019-05-01T00:51:31.549Z,51.33
2019-05-01T00:54:00.997Z,44.47
2019-05-01T00:56:49.610Z,54.30
2019-05-01T00:59:26.689Z,48.53
2019-05-01T01:02:07.998Z,49.23
2019-05-01T01:04:37.268Z,45.97
2019-05-01T01:07:06.740Z,46.33
2019-05-01T01:09:36.160Z,44.23
2019-05-01T01:12:05.442Z,47.60
2019-05-01T01:14:34.830Z,42.63
2019-05-01T01:17:04.420Z,49.37
2019-05-01T01:19:33.736Z,52.43
2019-05-01T01:22:03.052Z,43.57
2019-05-01T01:24:32.627Z,46.93
2019-05-01T01:27:02.338Z,53.53
2019-05-01T01:29:31.839Z,48.87
2019-05-01T01:32:01.548Z,51.10
2019-05-01T01:34:31.065Z,51.60
2019-05-01T01:37:00.387Z,52.00
2019-05-01T01:39:30.181Z,43.30
2019-05-01T01:41:59.842Z,34.27
2019-05-01T01:44:43.833Z,41.00
2019-05-01T01:47:13.659Z,51.50
2019-05-01T01:49:42.905Z,53.30
2019-05-01T01:52:12.480Z,48.43
2019-05-01T01:54:41.828Z,58.47
2019-05-01T01:57:11.477Z,41.43
2019-05-01T01:59:41.126Z,46.37
2019-05-01T02:02:18.600Z,52.80
2019-05-01T02:05:07.539Z,61.47
2019-05-01T02:07:37.021Z,63.07
2019-05-01T02:10:07.492Z,57.13
2019-05-01T02:12:38.711Z,55.77
2019-05-01T02:15:08.679Z,57.63
2019-05-01T02:17:38.073Z,56.90
2019-05-01T02:20:08.668Z,61.23
2019-05-01T02:22:37.959Z,63.17
2019-05-01T02:25:09.621Z,58.40
2019-05-01T02:27:48.262Z,61.77
2019-05-01T02:30:19.370Z,58.73
2019-05-01T02:32:49.918Z,67.20
2019-05-01T02:35:20.207Z,65.63
2019-05-01T02:37:50.901Z,76.63
2019-05-01T02:40:57.103Z,71.40
2019-05-01T02:43:29.377Z,72.57
2019-05-01T02:46:01.667Z,77.03
2019-05-01T02:48:34.785Z,71.87
2019-05-01T02:51:05.415Z,82.27
2019-05-01T02:53:38.162Z,84.20
2019-05-01T02:56:20.777Z,77.73
2019-05-01T02:58:52.465Z,70.57
2019-05-01T03:01:23.224Z,57.10
2019-05-01T03:03:53.242Z,60.50
2019-05-01T03:06:23.291Z,57.57
2019-05-01T03:08:54.265Z,46.63
2019-05-01T03:11:23.686Z,48.13
2019-05-01T03:13:56.677Z,58.23
2019-05-01T03:16:27.346Z,54.47
2019-05-01T03:18:59.393Z,45.97
2019-05-01T03:21:34.451Z,50.83
2019-05-01T03:24:11.030Z,67.30
2019-05-01T03:26:40.398Z,78.20
2019-05-01T03:29:09.961Z,57.27
2019-05-01T03:31:39.839Z,54.07
2019-05-01T03:34:09.200Z,61.10
2019-05-01T03:36:38.963Z,55.23
2019-05-01T03:39:08.651Z,64.57
2019-05-01T03:41:37.973Z,67.67
2019-05-01T03:44:07.428Z,86.20
2019-05-01T03:46:38.045Z,104.00
2019-05-01T03:49:07.559Z,140.10
2019-05-01T03:51:37.182Z,156.83
2019-05-01T03:54:07.088Z,195.23
2019-05-01T03:56:36.555Z,193.93
2019-05-01T03:59:06.237Z,164.30
2019-05-01T04:01:53.444Z,135.50
2019-05-01T04:04:25.254Z,119.00
2019-05-01T04:06:55.150Z,134.80
2019-05-01T04:09:24.836Z,176.80
2019-05-01T04:11:54.320Z,196.37
2019-05-01T04:14:24.019Z,202.90
2019-05-01T04:16:59.801Z,142.63
2019-05-01T04:19:29.201Z,163.33
2019-05-01T04:22:08.640Z,114.93
2019-05-01T04:24:38.164Z,95.10
2019-05-01T04:27:09.277Z,94.33
2019-05-01T04:29:55.046Z,96.47
2019-05-01T04:32:50.899Z,88.77
2019-05-01T04:35:25.651Z,86.43
2019-05-01T04:37:59.527Z,74.80
2019-05-01T04:40:29.323Z,82.43
2019-05-01T04:42:59.014Z,92.17
2019-05-01T04:45:29.306Z,130.27
2019-05-01T04:47:58.984Z,197.87
2019-05-01T04:50:28.939Z,156.77
2019-05-01T04:52:59.240Z,164.60
2019-05-01T04:55:29.035Z,142.40
2019-05-01T04:57:58.453Z,114.03
2019-05-01T05:00:27.894Z,112.67
2019-05-01T05:03:04.904Z,93.50
2019-05-01T05:05:34.007Z,116.87
2019-05-01T05:08:04.093Z,121.43
2019-05-01T05:10:33.848Z,167.50
2019-05-01T05:13:09.171Z,140.37
2019-05-01T05:16:06.936Z,99.10
2019-05-01T05:18:36.995Z,102.60
2019-05-01T05:21:06.444Z,117.33
2019-05-01T05:23:36.375Z,115.40
2019-05-01T05:26:05.695Z,109.70
2019-05-01T05:28:36.399Z,96.10
2019-05-01T05:31:07.025Z,100.80
2019-05-01T05:33:38.996Z,102.33
2019-05-01T05:36:11.345Z,102.17
2019-05-01T05:39:00.849Z,89.27
2019-05-01T05:41:31.648Z,101.33
2019-05-01T05:44:01.992Z,98.10
2019-05-01T05:46:31.674Z,93.27
2019-05-01T05:49:01.067Z,92.33
2019-05-01T05:52:04.538Z,76.67
2019-05-01T05:54:54.641Z,79.33
2019-05-01T05:57:35.890Z,80.50
2019-05-01T06:00:29.151Z,82.67
2019-05-01T06:03:31.233Z,87.47
2019-05-01T06:06:16.864Z,83.77
2019-05-01T06:08:49.065Z,75.00
2019-05-01T06:11:51.651Z,74.03
2019-05-01T06:14:39.321Z,68.63
2019-05-01T06:17:42.947Z,73.60
2019-05-01T06:20:29.988Z,67.70
2019-05-01T06:23:20.619Z,62.73
2019-05-01T06:25:54.245Z,70.07
2019-05-01T06:28:24.930Z,63.77
2019-05-01T06:30:57.266Z,64.77
2019-05-01T06:33:26.717Z,67.13
2019-05-01T06:35:56.038Z,63.47
2019-05-01T06:38:25.520Z,60.37
2019-05-01T06:40:58.114Z,55.93
2019-05-01T06:44:07.314Z,51.70
2019-05-01T06:46:58.260Z,54.23
2019-05-01T06:49:44.757Z,49.13
2019-05-01T06:52:18.351Z,46.50
2019-05-01T06:54:52.099Z,44.80
2019-05-01T06:57:19.164Z,42.80
2019-05-01T06:59:48.781Z,40.33
2019-05-01T07:02:19.155Z,43.73
2019-05-01T07:04:50.812Z,43.37
2019-05-01T07:07:25.913Z,40.93
2019-05-01T07:09:55.509Z,40.00
2019-05-01T07:12:28.354Z,40.50
2019-05-01T07:15:00.271Z,39.37
2019-05-01T07:17:29.558Z,48.27
2019-05-01T07:20:30.667Z,37.07
2019-05-01T07:23:00.369Z,45.80
2019-05-01T07:25:29.625Z,38.83
2019-05-01T07:27:59.748Z,40.90
2019-05-01T07:30:41.547Z,38.33
2019-05-01T07:33:12.103Z,44.70
2019-05-01T07:35:43.228Z,42.10
2019-05-01T07:38:12.765Z,43.13
2019-05-01T07:40:42.677Z,38.20
2019-05-01T07:43:19.027Z,42.37
2019-05-01T07:45:57.672Z,39.23
2019-05-01T07:48:36.139Z,38.80
2019-05-01T07:51:06.856Z,41.83
2019-05-01T07:53:38.259Z,42.47
2019-05-01T07:56:08.841Z,40.07
2019-05-01T07:58:39.314Z,37.27
2019-05-01T08:01:24.125Z,39.30
2019-05-01T08:03:53.623Z,34.73
2019-05-01T08:06:22.998Z,37.93
2019-05-01T08:08:52.315Z,39.77
2019-05-01T08:11:21.657Z,41.13
2019-05-01T08:13:50.930Z,38.17
2019-05-01T08:16:20.254Z,40.10
2019-05-01T08:19:11.645Z,40.40
2019-05-01T08:21:56.908Z,39.57
2019-05-01T08:24:24.751Z,41.67
2019-05-01T08:26:54.308Z,45.23
2019-05-01T08:29:42.162Z,41.93
2019-05-01T08:32:25.668Z,43.40
2019-05-01T08:35:00.568Z,44.53
2019-05-01T08:37:27.981Z,46.70
2019-05-01T08:39:57.315Z,42.80
2019-05-01T08:42:26.841Z,37.87
2019-05-01T08:45:13.545Z,39.50
2019-05-01T08:47:45.160Z,37.57
2019-05-01T08:50:19.812Z,34.33
2019-05-01T08:52:48.705Z,38.97
2019-05-01T08:55:18.065Z,34.17
2019-05-01T08:57:47.394Z,35.13
2019-05-01T09:00:16.855Z,33.27
2019-05-01T09:02:46.171Z,35.80
2019-05-01T09:05:28.558Z,42.23
2019-05-01T09:07:50.856Z,40.33
2019-05-01T09:10:21.661Z,40.53
2019-05-01T09:12:51.982Z,40.90
2019-05-01T09:15:20.232Z,38.73
2019-05-01T09:17:49.561Z,43.47
2019-05-01T09:20:18.938Z,43.13
2019-05-01T09:22:48.307Z,47.77
2019-05-01T09:25:20.859Z,42.93
2019-05-01T09:27:59.542Z,43.13
2019-05-01T09:30:36.162Z,48.57
2019-05-01T09:33:05.725Z,43.00
2019-05-01T09:35:35.052Z,47.90
2019-05-01T09:38:04.567Z,45.50
2019-05-01T09:40:34.034Z,46.80
2019-05-01T09:43:03.445Z,45.63
2019-05-01T09:45:34.368Z,48.60
2019-05-01T09:48:03.765Z,47.73
2019-05-01T09:50:34.728Z,51.20
2019-05-01T09:53:12.131Z,49.70
2019-05-01T09:55:48.688Z,51.53
2019-05-01T09:58:18.074Z,56.57
2019-05-01T10:00:48.795Z,53.37
2019-05-01T10:03:18.514Z,43.23
2019-05-01T10:05:47.951Z,46.23
2019-05-01T10:08:17.243Z,47.50
2019-05-01T10:10:46.570Z,48.10
2019-05-01T10:13:17.679Z,43.33
2019-05-01T10:15:47.486Z,48.23
2019-05-01T10:18:16.742Z,45.20
2019-05-01T10:20:46.290Z,42.73
2019-05-01T10:23:15.594Z,45.30
2019-05-01T10:25:49.801Z,42.03
2019-05-01T10:28:29.254Z,35.77
2019-05-01T10:31:26.568Z,39.17
2019-05-01T10:34:02.905Z,38.00
2019-05-01T10:36:39.313Z,40.40
2019-05-01T10:39:09.674Z,39.73
2019-05-01T10:41:41.083Z,35.20
2019-05-01T10:44:10.250Z,38.90
2019-05-01T10:46:39.574Z,37.33
2019-05-01T10:49:08.839Z,39.27
2019-05-01T10:51:38.128Z,38.73
2019-05-01T10:54:07.610Z,42.73
2019-05-01T10:56:36.980Z,40.00
2019-05-01T10:59:06.374Z,40.20
2019-05-01T11:01:45.251Z,36.83
2019-05-01T11:04:14.576Z,36.73
2019-05-01T11:06:43.844Z,41.23
2019-05-01T11:09:13.363Z,35.73
2019-05-01T11:11:42.684Z,43.77
2019-05-01T11:14:11.947Z,38.83
2019-05-01T11:16:41.317Z,35.70
2019-05-01T11:19:11.116Z,38.13
2019-05-01T11:21:40.411Z,39.47
2019-05-01T11:24:09.761Z,35.83
2019-05-01T11:26:39.236Z,43.13
2019-05-01T11:29:08.535Z,35.77
2019-05-01T11:32:02.823Z,45.00
2019-05-01T11:34:54.091Z,37.93
2019-05-01T11:37:37.924Z,41.83
2019-05-01T11:40:15.546Z,41.43
2019-05-01T11:42:44.894Z,41.27
2019-05-01T11:45:14.610Z,39.70
2019-05-01T11:47:43.978Z,39.63
2019-05-01T11:50:13.404Z,41.10
2019-05-01T11:52:42.735Z,40.27
2019-05-01T11:55:13.554Z,39.57
2019-05-01T11:57:43.126Z,42.97
2019-05-01T12:00:14.919Z,38.07
2019-05-01T12:02:44.497Z,40.83
2019-05-01T12:05:14.329Z,45.60
2019-05-01T12:07:43.630Z,43.73
2019-05-01T12:10:14.401Z,40.93
2019-05-01T12:12:43.898Z,42.03
2019-05-01T12:15:13.386Z,41.67
2019-05-01T12:17:48.248Z,41.57
2019-05-01T12:20:18.490Z,42.23
2019-05-01T12:22:51.030Z,42.90
2019-05-01T12:25:19.259Z,41.87
2019-05-01T12:27:48.571Z,46.90
2019-05-01T12:30:18.281Z,48.47
2019-05-01T12:32:47.677Z,50.10
2019-05-01T12:35:17.128Z,42.80
2019-05-01T12:37:46.377Z,41.93
2019-05-01T12:40:21.215Z,48.60
2019-05-01T12:42:50.495Z,46.27
2019-05-01T12:45:19.836Z,47.13
2019-05-01T12:48:00.594Z,47.73
2019-05-01T12:50:29.945Z,46.10
2019-05-01T12:53:30.529Z,43.50
2019-05-01T12:56:17.389Z,42.30
2019-05-01T12:58:47.979Z,46.77
2019-05-01T13:01:17.426Z,44.77
2019-05-01T13:03:46.814Z,45.93
2019-05-01T13:06:16.300Z,44.73
2019-05-01T13:08:45.548Z,43.80
2019-05-01T13:11:14.862Z,51.63
2019-05-01T13:13:44.263Z,43.40
2019-05-01T13:16:13.522Z,43.27
2019-05-01T13:18:42.852Z,43.30
2019-05-01T13:21:12.320Z,42.27
2019-05-01T13:23:41.705Z,50.30
2019-05-01T13:26:18.684Z,41.37
2019-05-01T13:28:58.861Z,43.10
2019-05-01T13:31:47.586Z,41.27
2019-05-01T13:34:16.920Z,39.30
2019-05-01T13:36:46.179Z,42.73
2019-05-01T13:39:15.836Z,44.67
2019-05-01T13:41:45.187Z,40.33
2019-05-01T13:44:14.512Z,39.47
2019-05-01T13:46:43.926Z,35.37
2019-05-01T13:49:13.271Z,42.50
2019-05-01T13:51:42.562Z,35.77
2019-05-01T13:54:11.905Z,38.60
2019-05-01T13:56:41.240Z,38.80
2019-05-01T13:59:13.581Z,35.63
2019-05-01T14:01:43.056Z,32.17
2019-05-01T14:04:13.367Z,33.87
2019-05-01T14:06:42.815Z,35.43
2019-05-01T14:09:16.482Z,32.33
2019-05-01T14:11:46.001Z,33.77
2019-05-01T14:14:15.315Z,30.70
2019-05-01T14:16:44.687Z,29.77
2019-05-01T14:19:14.753Z,33.03
2019-05-01T14:21:53.645Z,31.63
2019-05-01T14:24:30.873Z,30.00
2019-05-01T14:27:00.393Z,30.23
2019-05-01T14:29:29.741Z,28.70
2019-05-01T14:31:59.065Z,28.47
2019-05-01T14:34:28.455Z,28.67
2019-05-01T14:36:57.797Z,27.03
2019-05-01T14:39:27.265Z,27.53
2019-05-01T14:41:56.649Z,27.40
2019-05-01T14:44:36.198Z,28.47
2019-05-01T14:46:57.260Z,27.60
2019-05-01T14:49:26.648Z,32.37
2019-05-01T14:51:55.989Z,30.97
2019-05-01T14:54:25.306Z,31.87
2019-05-01T14:56:54.655Z,30.20
2019-05-01T14:59:23.931Z,32.63
2019-05-01T15:01:53.252Z,27.37
2019-05-01T15:04:22.560Z,34.63
2019-05-01T15:06:51.921Z,31.00
2019-05-01T15:09:21.634Z,31.33
2019-05-01T15:11:50.977Z,35.50
2019-05-01T15:14:30.385Z,33.67
2019-05-01T15:17:36.939Z,29.60
2019-05-01T15:20:07.760Z,34.47
2019-05-01T15:22:37.079Z,35.63
2019-05-01T15:25:06.550Z,32.00
2019-05-01T15:27:35.954Z,34.13
2019-05-01T15:30:06.249Z,32.70
2019-05-01T15:32:35.642Z,35.97
2019-05-01T15:35:05.853Z,30.93
2019-05-01T15:37:35.470Z,33.27
2019-05-01T15:40:13.014Z,34.30
2019-05-01T15:42:46.711Z,41.03
2019-05-01T15:45:16.713Z,33.13
2019-05-01T15:47:46.191Z,33.77
2019-05-01T15:50:15.700Z,33.73
2019-05-01T15:52:45.215Z,34.60
2019-05-01T15:55:14.529Z,31.00
2019-05-01T15:57:43.837Z,34.47
2019-05-01T16:00:17.299Z,35.37
2019-05-01T16:02:46.656Z,34.40
2019-05-01T16:05:16.148Z,31.97
2019-05-01T16:07:45.664Z,34.73
2019-05-01T16:10:18.417Z,40.07
2019-05-01T16:12:59.885Z,33.90
2019-05-01T16:15:36.110Z,31.70
2019-05-01T16:18:05.855Z,37.90
2019-05-01T16:20:35.197Z,40.20
2019-05-01T16:23:04.783Z,37.33
2019-05-01T16:25:34.389Z,33.60
2019-05-01T16:28:03.704Z,33.33
2019-05-01T16:30:33.061Z,32.83
2019-05-01T16:33:02.490Z,35.53
2019-05-01T16:35:31.795Z,32.40
2019-05-01T16:38:02.771Z,33.70
2019-05-01T16:40:56.897Z,31.23
2019-05-01T16:43:26.387Z,35.13
2019-05-01T16:45:55.867Z,28.70
2019-05-01T16:48:25.422Z,30.97
2019-05-01T16:50:54.717Z,36.80
2019-05-01T16:53:24.815Z,30.33
2019-05-01T16:55:54.352Z,27.27
2019-05-01T16:58:24.279Z,30.90
2019-05-01T17:01:01.479Z,29.03
2019-05-01T17:03:39.427Z,27.93
2019-05-01T17:06:36.617Z,27.30
2019-05-01T17:09:32.645Z,28.97
2019-05-01T17:12:02.197Z,26.60
2019-05-01T17:14:31.542Z,27.57
2019-05-01T17:17:00.907Z,31.27
2019-05-01T17:19:30.487Z,28.13
2019-05-01T17:21:59.772Z,31.60
2019-05-01T17:24:29.094Z,29.93
2019-05-01T17:26:58.623Z,32.20
2019-05-01T17:29:27.945Z,33.30
2019-05-01T17:31:57.351Z,32.00
2019-05-01T17:34:30.697Z,32.23
2019-05-01T17:36:57.768Z,29.97
2019-05-01T17:39:27.148Z,30.37
2019-05-01T17:41:57.574Z,27.53
2019-05-01T17:44:27.544Z,25.63
2019-05-01T17:46:57.119Z,29.10
2019-05-01T17:49:26.465Z,27.83
2019-05-01T17:51:55.819Z,33.27
2019-05-01T17:54:25.359Z,28.30
2019-05-01T17:56:55.782Z,27.37
2019-05-01T17:59:25.198Z,34.13
2019-05-01T18:02:16.257Z,32.27
2019-05-01T18:05:05.062Z,27.83
2019-05-01T18:07:35.008Z,28.83
2019-05-01T18:10:05.131Z,33.33
2019-05-01T18:12:34.493Z,29.63
2019-05-01T18:15:04.295Z,32.80
2019-05-01T18:17:33.594Z,26.97
2019-05-01T18:20:02.995Z,31.47
2019-05-01T18:23:02.444Z,28.77
2019-05-01T18:25:45.539Z,29.87
2019-05-01T18:28:31.752Z,32.37
2019-05-01T18:31:01.153Z,29.50
2019-05-01T18:33:30.451Z,29.07
2019-05-01T18:36:00.026Z,28.60
2019-05-01T18:38:43.011Z,29.50
2019-05-01T18:41:31.627Z,32.20
2019-05-01T18:44:05.219Z,32.40
2019-05-01T18:46:32.244Z,36.83
2019-05-01T18:49:01.855Z,40.57
2019-05-01T18:51:31.168Z,32.10
2019-05-01T18:54:00.711Z,38.37
2019-05-01T18:56:30.031Z,34.03
2019-05-01T18:58:59.288Z,37.47
2019-05-01T19:01:28.625Z,38.33
2019-05-01T19:03:58.012Z,34.50
2019-05-01T19:06:40.094Z,40.00
2019-05-01T19:08:58.452Z,37.47
2019-05-01T19:11:27.913Z,35.17
2019-05-01T19:13:57.220Z,35.00
2019-05-01T19:16:26.608Z,36.17
2019-05-01T19:18:55.958Z,32.10
2019-05-01T19:21:27.330Z,38.17
2019-05-01T19:24:00.432Z,34.77
2019-05-01T19:26:27.846Z,34.03
2019-05-01T19:28:57.425Z,40.37
2019-05-01T19:31:26.702Z,34.97
2019-05-01T19:33:56.030Z,33.07
2019-05-01T19:36:25.737Z,40.90
2019-05-01T19:38:55.126Z,35.60
2019-05-01T19:41:24.691Z,39.20
2019-05-01T19:43:54.075Z,33.40
2019-05-01T19:46:23.422Z,34.73
2019-05-01T19:48:52.806Z,40.03
2019-05-01T19:51:23.999Z,34.87
2019-05-01T19:53:53.550Z,31.40
2019-05-01T19:56:23.259Z,30.90
2019-05-01T19:58:52.596Z,35.03
2019-05-01T20:01:21.866Z,30.33
2019-05-01T20:03:51.345Z,31.47
2019-05-01T20:06:20.658Z,31.20
2019-05-01T20:08:49.960Z,35.70
2019-05-01T20:11:19.392Z,31.63
2019-05-01T20:13:48.708Z,32.03
2019-05-01T20:16:18.997Z,28.33
2019-05-01T20:18:48.682Z,29.50
2019-05-01T20:21:18.007Z,30.20
2019-05-01T20:23:47.261Z,29.00
2019-05-01T20:26:16.589Z,32.07
2019-05-01T20:28:47.154Z,28.50
2019-05-01T20:31:17.932Z,32.93
2019-05-01T20:33:47.874Z,28.73
2019-05-01T20:36:17.626Z,25.07
2019-05-01T20:38:47.215Z,26.60
2019-05-01T20:41:18.056Z,28.97
2019-05-01T20:43:47.484Z,24.17
2019-05-01T20:46:21.291Z,25.87
2019-05-01T20:48:48.446Z,24.20
2019-05-01T20:51:20.176Z,25.87
2019-05-01T20:53:48.846Z,21.87
2019-05-01T20:56:38.438Z,23.87
2019-05-01T20:59:07.756Z,23.30
2019-05-01T21:01:37.120Z,23.93
2019-05-01T21:04:43.490Z,20.13
2019-05-01T21:07:20.108Z,26.13
2019-05-01T21:09:56.969Z,23.53
2019-05-01T21:12:21.520Z,21.77
2019-05-01T21:14:51.059Z,26.00
2019-05-01T21:17:20.465Z,20.33
2019-05-01T21:19:49.757Z,22.10
2019-05-01T21:22:18.994Z,22.87
2019-05-01T21:24:48.356Z,20.00
2019-05-01T21:27:18.206Z,20.70
2019-05-01T21:29:48.073Z,22.37
2019-05-01T21:32:18.174Z,19.07
2019-05-01T21:34:48.440Z,27.30
2019-05-01T21:37:17.840Z,21.30
2019-05-01T21:39:47.122Z,22.33
2019-05-01T21:42:16.443Z,20.57
2019-05-01T21:44:45.960Z,21.50
2019-05-01T21:47:15.343Z,21.43
2019-05-01T21:49:44.806Z,20.03
2019-05-01T21:52:18.026Z,24.83
2019-05-01T21:54:45.124Z,22.00
2019-05-01T21:57:17.406Z,20.17
2019-05-01T21:59:48.117Z,21.10
2019-05-01T22:02:16.573Z,19.00
2019-05-01T22:04:45.881Z,23.93
2019-05-01T22:07:15.240Z,22.37
2019-05-01T22:09:45.743Z,22.53
2019-05-01T22:12:15.852Z,20.27
2019-05-01T22:14:52.794Z,21.87
2019-05-01T22:17:32.198Z,25.10
2019-05-01T22:20:00.033Z,26.77
2019-05-01T22:22:47.234Z,22.60
2019-05-01T22:25:26.326Z,22.20
2019-05-01T22:28:02.400Z,19.60
2019-05-01T22:30:42.294Z,23.30
2019-05-01T22:33:09.527Z,21.57
2019-05-01T22:35:42.387Z,22.87
2019-05-01T22:38:12.004Z,24.93
2019-05-01T22:41:05.986Z,22.00
2019-05-01T22:43:29.456Z,23.70
2019-05-01T22:46:01.692Z,22.23
2019-05-01T22:48:30.105Z,19.27
2019-05-01T22:51:03.805Z,18.13
2019-05-01T22:53:33.311Z,17.10
2019-05-01T22:56:04.054Z,18.33
2019-05-01T22:58:33.584Z,21.53
2019-05-01T23:01:04.161Z,17.13
2019-05-01T23:03:52.377Z,21.20
2019-05-01T23:06:21.942Z,20.50
2019-05-01T23:08:51.247Z,22.60
2019-05-01T23:11:21.379Z,16.93
2019-05-01T23:13:50.887Z,18.37
2019-05-01T23:16:21.994Z,23.77
2019-05-01T23:18:51.841Z,15.67
2019-05-01T23:21:22.511Z,19.20
2019-05-01T23:23:52.025Z,22.83
2019-05-01T23:26:21.324Z,21.20
2019-05-01T23:28:50.729Z,19.77
2019-05-01T23:31:20.371Z,21.10
2019-05-01T23:33:50.689Z,19.30
2019-05-01T23:36:23.740Z,20.00
2019-05-01T23:38:52.159Z,22.57
2019-05-01T23:41:23.057Z,19.13
2019-05-01T23:43:52.688Z,17.37
2019-05-01T23:46:21.930Z,17.97
2019-05-01T23:48:51.274Z,18.80
2019-05-01T23:51:23.610Z,16.13
2019-05-01T23:53:51.778Z,15.57
2019-05-01T23:56:21.220Z,17.37
2019-05-01T23:58:50.721Z,19.00
